Time;durP1;ratioP1;P1;durP2;ratioP2;P2;SDS_P1;SDS_P2;PMS_P1;PMS_P2;Temp;Humidity;BMP_temperature;BMP_pressure;BME280_temperature;BME280_humidity;BME280_pressure;Samples;Min_cycle;Max_cycle;Signal;HPM_P1;HPM_P2
2022/03/20 00:00:46;;;;;;;23.13;19.63;;;9.40;64.10;;;;;;5053070;28;20405;-66
2022/03/20 00:03:12;;;;;;;19.43;17.30;;;9.40;64.90;;;;;;5052977;28;20515;-66
2022/03/20 00:05:40;;;;;;;22.13;19.30;;;9.30;64.90;;;;;;5053158;28;20939;-66
2022/03/20 00:08:11;;;;;;;21.20;18.97;;;9.30;65.10;;;;;;5052894;28;20844;-66
2022/03/20 00:10:38;;;;;;;23.70;18.60;;;9.20;65.40;;;;;;5053717;28;20857;-66
2022/03/20 00:13:08;;;;;;;23.30;19.50;;;9.20;65.60;;;;;;5052786;28;20408;-66
2022/03/20 00:15:34;;;;;;;21.37;19.17;;;9.20;67.00;;;;;;5053400;28;20473;-67
2022/03/20 00:18:00;;;;;;;24.70;19.77;;;9.20;66.90;;;;;;5051510;28;20409;-67
2022/03/20 00:20:25;;;;;;;21.23;18.87;;;9.10;67.00;;;;;;5052774;28;20455;-66
2022/03/20 00:22:52;;;;;;;25.57;19.80;;;9.00;66.90;;;;;;5053204;28;20177;-66
2022/03/20 00:25:18;;;;;;;22.87;20.23;;;9.00;67.20;;;;;;5052508;28;20213;-66
2022/03/20 00:27:44;;;;;;;26.10;18.53;;;9.00;67.20;;;;;;5053118;28;20503;-66
2022/03/20 00:30:10;;;;;;;24.53;19.10;;;9.10;67.30;;;;;;5052055;28;20962;-66
2022/03/20 00:32:36;;;;;;;25.57;19.13;;;9.10;66.80;;;;;;5053037;28;20416;-66
2022/03/20 00:35:02;;;;;;;24.17;19.07;;;9.00;66.80;;;;;;5051490;28;20907;-67
2022/03/20 00:37:28;;;;;;;22.53;19.10;;;9.00;66.80;;;;;;5053044;28;20576;-66
2022/03/20 00:39:54;;;;;;;22.47;18.50;;;8.90;67.50;;;;;;5052643;28;20474;-66
2022/03/20 00:42:20;;;;;;;23.93;19.37;;;8.90;67.30;;;;;;5052017;28;20411;-66
2022/03/20 00:44:46;;;;;;;25.10;19.97;;;8.80;67.10;;;;;;5052853;28;20493;-66
2022/03/20 00:47:13;;;;;;;22.67;19.60;;;8.80;67.00;;;;;;5052228;28;20412;-66
2022/03/20 00:49:41;;;;;;;22.57;19.40;;;8.80;67.30;;;;;;5052802;28;20412;-66
2022/03/20 00:52:07;;;;;;;23.33;19.13;;;8.70;67.30;;;;;;5052197;28;20409;-65
2022/03/20 00:54:33;;;;;;;22.17;19.77;;;8.60;68.00;;;;;;5052774;28;20412;-65
2022/03/20 00:56:59;;;;;;;22.60;19.57;;;8.60;67.20;;;;;;5052369;28;20796;-75
2022/03/20 00:59:26;;;;;;;24.60;18.80;;;8.60;67.50;;;;;;5052635;28;20169;-67
2022/03/20 01:01:52;;;;;;;25.40;20.03;;;8.60;67.10;;;;;;5052302;28;20917;-66
2022/03/20 01:04:18;;;;;;;23.87;19.57;;;8.50;66.80;;;;;;5051039;28;20456;-67
2022/03/20 01:06:44;;;;;;;26.17;19.27;;;8.50;66.80;;;;;;5052742;28;20440;-66
2022/03/20 01:09:09;;;;;;;22.63;18.73;;;8.60;67.00;;;;;;5052021;28;20436;-67
2022/03/20 01:11:35;;;;;;;23.00;19.67;;;8.60;66.20;;;;;;5052416;28;20212;-67
2022/03/20 01:14:01;;;;;;;24.63;19.97;;;8.60;66.10;;;;;;5051774;28;20244;-67
2022/03/20 01:16:27;;;;;;;23.87;18.30;;;8.50;66.00;;;;;;5052468;28;20182;-67
2022/03/20 01:18:52;;;;;;;24.80;19.97;;;8.50;66.30;;;;;;5052424;28;20207;-67
2022/03/20 01:21:18;;;;;;;24.63;19.50;;;8.40;65.80;;;;;;5051485;28;20221;-67
2022/03/20 01:23:45;;;;;;;22.87;18.70;;;8.40;65.90;;;;;;5052387;28;20177;-65
2022/03/20 01:26:11;;;;;;;25.07;19.80;;;8.30;66.00;;;;;;5051698;28;20217;-66
2022/03/20 01:28:37;;;;;;;23.30;19.23;;;8.30;66.00;;;;;;5052449;28;20473;-67
2022/03/20 01:31:03;;;;;;;23.33;18.50;;;8.30;66.00;;;;;;5051799;28;20810;-67
2022/03/20 01:33:28;;;;;;;25.83;19.60;;;8.30;66.10;;;;;;5052353;28;20516;-66
2022/03/20 01:35:54;;;;;;;23.83;18.87;;;8.30;66.50;;;;;;5051985;28;20389;-67
2022/03/20 01:38:20;;;;;;;23.93;20.80;;;8.30;66.00;;;;;;5051698;28;20580;-67
2022/03/20 01:40:50;;;;;;;25.13;19.47;;;8.30;65.80;;;;;;5052299;28;20522;-67
2022/03/20 01:43:17;;;;;;;24.50;18.97;;;8.20;66.10;;;;;;5051626;28;20864;-67
2022/03/20 01:45:43;;;;;;;24.37;19.50;;;8.20;65.80;;;;;;5052120;28;20437;-67
2022/03/20 01:48:09;;;;;;;26.93;20.03;;;8.20;65.90;;;;;;5051494;28;20390;-67
2022/03/20 01:50:34;;;;;;;23.63;19.53;;;8.20;66.00;;;;;;5051819;28;20481;-67
2022/03/20 01:53:01;;;;;;;23.50;18.70;;;8.30;66.20;;;;;;5052368;28;20191;-66
2022/03/20 01:55:28;;;;;;;29.17;19.47;;;8.30;65.70;;;;;;5052219;28;20408;-67
2022/03/20 01:57:56;;;;;;;23.17;18.53;;;8.30;65.60;;;;;;5052048;28;20407;-67
2022/03/20 02:00:25;;;;;;;25.40;20.33;;;8.20;65.70;;;;;;5051068;28;20899;-67
2022/03/20 02:02:51;;;;;;;23.33;19.67;;;8.30;65.80;;;;;;5052073;28;20412;-66
2022/03/20 02:05:18;;;;;;;24.73;19.70;;;8.30;65.60;;;;;;5051362;28;20448;-67
2022/03/20 02:07:47;;;;;;;26.87;20.50;;;8.40;66.40;;;;;;5052303;28;20511;-67
2022/03/20 02:10:14;;;;;;;24.10;20.83;;;8.40;65.10;;;;;;5051606;28;20422;-67
2022/03/20 02:12:41;;;;;;;26.67;20.40;;;8.30;64.80;;;;;;5051937;28;20462;-67
2022/03/20 02:15:12;;;;;;;26.40;20.47;;;8.40;65.20;;;;;;5051015;28;20383;-67
2022/03/20 02:17:39;;;;;;;25.40;20.53;;;8.30;64.90;;;;;;5051973;28;20483;-67
2022/03/20 02:20:08;;;;;;;24.17;19.40;;;8.30;65.00;;;;;;5051188;28;20456;-67
2022/03/20 02:22:38;;;;;;;23.13;20.30;;;8.30;64.90;;;;;;5053070;28;20757;-67
2022/03/20 02:25:08;;;;;;;23.43;20.17;;;8.10;64.90;;;;;;5054845;28;20447;-75
2022/03/20 02:27:38;;;;;;;23.33;19.40;;;8.10;64.80;;;;;;5055096;28;20907;-67
2022/03/20 02:30:12;;;;;;;27.37;20.10;;;8.10;65.40;;;;;;5054757;28;20404;-70
2022/03/20 02:32:41;;;;;;;22.43;19.10;;;8.00;64.80;;;;;;5055602;28;20409;-66
2022/03/20 02:35:11;;;;;;;27.17;20.30;;;8.00;65.70;;;;;;5054675;28;20419;-67
2022/03/20 02:37:39;;;;;;;28.07;20.60;;;8.00;65.40;;;;;;5038183;28;20404;-67
2022/03/20 02:40:06;;;;;;;23.70;20.13;;;7.90;65.30;;;;;;5054585;28;20416;-68
2022/03/20 02:42:31;;;;;;;22.93;19.40;;;8.00;65.70;;;;;;5054099;28;20375;-66
2022/03/20 02:45:06;;;;;;;27.40;19.80;;;8.00;65.50;;;;;;5055103;28;20462;-67
2022/03/20 02:47:33;;;;;;;24.63;19.23;;;8.00;65.50;;;;;;5054919;28;20628;-67
2022/03/20 02:50:03;;;;;;;23.93;19.87;;;8.00;65.90;;;;;;5055013;28;20457;-66
2022/03/20 02:52:47;;;;;;;24.50;18.90;;;8.10;64.90;;;;;;5054720;28;20469;-67
2022/03/20 02:55:15;;;;;;;22.10;18.70;;;8.10;65.10;;;;;;5054043;28;20784;-67
2022/03/20 02:57:41;;;;;;;26.33;20.53;;;8.10;64.40;;;;;;5054565;28;20425;-67
2022/03/20 03:00:08;;;;;;;22.03;19.70;;;8.10;64.30;;;;;;5053837;28;20455;-67
2022/03/20 03:02:43;;;;;;;28.43;18.60;;;8.10;64.30;;;;;;5054535;28;20181;-67
2022/03/20 03:05:11;;;;;;;22.57;19.00;;;8.10;65.10;;;;;;5054119;28;20450;-67
2022/03/20 03:10:55;;;;;;;25.73;19.57;;;8.10;64.40;;;;;;5054680;28;20419;-67
2022/03/20 03:13:10;;;;;;;25.10;19.57;;;8.20;63.70;;;;;;5053926;28;20423;-74
2022/03/20 03:15:36;;;;;;;25.07;20.20;;;8.20;63.00;;;;;;5054469;28;20406;-67
2022/03/20 03:18:03;;;;;;;22.77;18.90;;;8.20;63.10;;;;;;5054466;28;20394;-67
2022/03/20 03:20:29;;;;;;;22.40;19.10;;;8.10;62.40;;;;;;5053845;28;20421;-67
2022/03/20 03:22:54;;;;;;;24.53;18.97;;;8.10;62.80;;;;;;5054422;28;20585;-67
2022/03/20 03:25:22;;;;;;;25.33;20.73;;;8.20;63.30;;;;;;5052350;28;20482;-67
2022/03/20 03:27:47;;;;;;;26.80;19.93;;;8.10;63.40;;;;;;5054276;28;20463;-67
2022/03/20 03:30:14;;;;;;;23.43;19.50;;;8.10;62.60;;;;;;5053543;28;20414;-67
2022/03/20 03:32:41;;;;;;;27.40;19.60;;;8.10;63.40;;;;;;5054408;28;20558;-67
2022/03/20 03:37:57;;;;;;;25.13;19.67;;;8.10;62.70;;;;;;5054174;28;20399;-66
2022/03/20 03:40:23;;;;;;;25.17;18.97;;;8.10;63.10;;;;;;5053228;28;20895;-67
2022/03/20 03:42:48;;;;;;;21.40;18.53;;;8.10;62.10;;;;;;5052855;28;20487;-67
2022/03/20 03:45:14;;;;;;;24.20;19.67;;;8.10;61.60;;;;;;5053121;28;20459;-67
2022/03/20 03:47:40;;;;;;;26.70;18.80;;;8.10;61.80;;;;;;5053594;28;20519;-67
2022/03/20 03:50:10;;;;;;;21.70;19.27;;;8.10;62.80;;;;;;5053918;28;20412;-67
2022/03/20 03:52:39;;;;;;;27.90;19.43;;;8.10;61.20;;;;;;5052730;28;20500;-67
2022/03/20 03:55:05;;;;;;;26.00;20.10;;;8.00;61.40;;;;;;5053782;28;20428;-66
2022/03/20 03:57:31;;;;;;;23.80;18.90;;;8.00;61.90;;;;;;5053008;28;20450;-66
2022/03/20 03:59:58;;;;;;;24.03;18.50;;;8.00;61.60;;;;;;5053580;28;20420;-67
2022/03/20 04:02:23;;;;;;;23.33;18.17;;;8.10;61.80;;;;;;5053096;28;20230;-67
2022/03/20 04:04:49;;;;;;;23.63;19.10;;;8.10;60.60;;;;;;5051970;28;20474;-67
2022/03/20 04:07:18;;;;;;;21.83;18.80;;;8.10;61.10;;;;;;5051641;28;20231;-67
2022/03/20 04:09:45;;;;;;;23.40;18.77;;;8.10;60.70;;;;;;5053558;28;20166;-67
2022/03/20 04:12:15;;;;;;;22.13;18.67;;;8.10;60.40;;;;;;5052802;28;20438;-68
2022/03/20 04:14:44;;;;;;;22.40;19.07;;;8.20;59.70;;;;;;5053312;28;20416;-67
2022/03/20 04:17:10;;;;;;;22.20;18.50;;;8.20;60.00;;;;;;5053083;28;20408;-67
2022/03/20 04:19:36;;;;;;;27.07;19.00;;;8.10;60.00;;;;;;5051836;28;20412;-67
2022/03/20 04:22:02;;;;;;;24.57;18.63;;;8.20;59.90;;;;;;5053297;28;20535;-67
2022/03/20 04:24:28;;;;;;;26.50;20.23;;;8.30;60.20;;;;;;5052306;28;20579;-67
2022/03/20 04:26:55;;;;;;;26.20;19.20;;;8.30;59.70;;;;;;5053202;28;20408;-67
2022/03/20 04:29:21;;;;;;;24.23;18.30;;;8.30;59.30;;;;;;5052486;28;20904;-67
2022/03/20 04:31:50;;;;;;;25.50;19.13;;;8.30;59.20;;;;;;5052748;28;20408;-67
2022/03/20 04:34:16;;;;;;;21.87;19.00;;;8.30;59.40;;;;;;5052257;28;20546;-67
2022/03/20 04:36:42;;;;;;;24.50;19.67;;;8.30;59.20;;;;;;5053010;28;20426;-67
2022/03/20 04:39:08;;;;;;;25.90;19.50;;;8.40;59.80;;;;;;5053279;28;20495;-67
2022/03/20 04:41:34;;;;;;;23.37;19.37;;;8.20;58.90;;;;;;5052556;28;20503;-67
2022/03/20 04:44:01;;;;;;;25.40;19.70;;;8.20;59.40;;;;;;5052877;28;20185;-67
2022/03/20 04:46:27;;;;;;;23.70;19.00;;;8.30;59.60;;;;;;5051901;28;20471;-67
2022/03/20 04:59:51;;;;;;;27.80;19.80;;;8.20;59.10;;;;;;5052740;28;20491;-67
2022/03/20 05:02:17;;;;;;;23.30;18.93;;;8.10;58.90;;;;;;5052321;28;20966;-67
2022/03/20 05:04:42;;;;;;;22.03;18.53;;;8.20;59.00;;;;;;5052700;28;20457;-67
2022/03/20 05:07:08;;;;;;;21.97;18.60;;;8.10;59.10;;;;;;5052613;28;20177;-67
2022/03/20 05:15:07;;;;;;;24.97;19.77;;;8.00;59.60;;;;;;5052544;28;20432;-67
2022/03/20 05:17:33;;;;;;;24.20;18.70;;;7.80;59.30;;;;;;5051593;28;20675;-67
2022/03/20 05:19:59;;;;;;;25.17;19.13;;;7.70;60.60;;;;;;5052364;28;20459;-67
2022/03/20 05:22:24;;;;;;;24.33;18.33;;;7.30;59.50;;;;;;5050604;28;20191;-67
2022/03/20 05:24:50;;;;;;;24.50;19.07;;;7.80;59.80;;;;;;5052336;28;20224;-67
2022/03/20 05:27:16;;;;;;;23.33;19.33;;;7.80;60.00;;;;;;5051812;28;20184;-67
2022/03/20 05:29:41;;;;;;;25.37;19.30;;;8.00;60.10;;;;;;5034525;28;20181;-67
2022/03/20 05:32:08;;;;;;;22.20;19.07;;;7.70;59.30;;;;;;5052532;28;20203;-67
2022/03/20 05:34:35;;;;;;;24.43;18.70;;;7.70;59.90;;;;;;5051759;28;20193;-67
2022/03/20 05:37:02;;;;;;;24.03;18.60;;;7.70;59.60;;;;;;5052243;28;20415;-67
2022/03/20 05:39:28;;;;;;;23.17;18.30;;;7.60;59.70;;;;;;5051428;28;20742;-67
2022/03/20 05:41:53;;;;;;;28.63;17.53;;;7.50;59.60;;;;;;5052205;28;20419;-67
2022/03/20 05:44:21;;;;;;;22.40;17.53;;;7.50;59.50;;;;;;5051553;28;20410;-67
2022/03/20 05:46:51;;;;;;;27.17;19.27;;;7.50;59.50;;;;;;5052191;28;20182;-67
2022/03/20 05:49:19;;;;;;;24.00;18.80;;;7.50;59.30;;;;;;5051577;28;20832;-67
2022/03/20 05:51:46;;;;;;;24.13;17.80;;;7.40;59.60;;;;;;5052414;28;20402;-67
2022/03/20 05:54:12;;;;;;;21.30;18.07;;;7.40;60.30;;;;;;5052196;28;20769;-67
2022/03/20 05:59:23;;;;;;;22.43;18.17;;;7.00;59.30;;;;;;5054217;28;20903;-67
2022/03/20 06:01:51;;;;;;;24.50;17.73;;;7.30;59.30;;;;;;5054655;28;20430;-67
2022/03/20 06:04:18;;;;;;;23.93;18.90;;;7.20;59.50;;;;;;5055198;28;20177;-67
2022/03/20 06:06:44;;;;;;;22.83;17.67;;;7.20;60.20;;;;;;5037879;28;20436;-67
2022/03/20 06:09:10;;;;;;;25.20;19.10;;;7.20;59.80;;;;;;5055774;28;20418;-67
2022/03/20 06:11:36;;;;;;;24.07;18.70;;;7.20;60.00;;;;;;5055173;28;20177;-67
2022/03/20 06:14:03;;;;;;;25.70;19.53;;;7.20;60.00;;;;;;5055790;28;20873;-67
2022/03/20 06:16:30;;;;;;;22.13;18.67;;;6.90;60.20;;;;;;5055308;28;20418;-66
2022/03/20 06:18:56;;;;;;;24.80;19.30;;;7.20;60.00;;;;;;5055635;28;20418;-67
2022/03/20 06:21:22;;;;;;;22.23;18.60;;;7.20;60.30;;;;;;5055199;28;20464;-67
2022/03/20 06:23:49;;;;;;;25.87;18.70;;;7.10;60.60;;;;;;5055806;28;20471;-66
2022/03/20 06:26:16;;;;;;;21.67;17.00;;;7.10;60.50;;;;;;5055415;28;20440;-67
2022/03/20 06:28:43;;;;;;;22.70;18.20;;;7.10;61.30;;;;;;5054768;28;20441;-67
2022/03/20 06:31:11;;;;;;;22.10;18.50;;;7.00;59.70;;;;;;5055473;28;20815;-67
2022/03/20 06:33:38;;;;;;;21.77;17.90;;;7.10;59.80;;;;;;5054744;28;20415;-67
2022/03/20 06:36:04;;;;;;;34.60;21.70;;;7.10;59.90;;;;;;5055305;28;20390;-67
2022/03/20 06:38:31;;;;;;;24.50;18.80;;;7.20;59.40;;;;;;5054912;28;20459;-67
2022/03/20 06:40:57;;;;;;;22.60;17.80;;;7.40;59.30;;;;;;5055316;28;20460;-67
2022/03/20 06:43:27;;;;;;;25.13;18.33;;;7.00;58.70;;;;;;5054571;28;20435;-67
2022/03/20 06:45:54;;;;;;;21.90;18.00;;;7.50;58.50;;;;;;5054802;28;20462;-67
2022/03/20 06:48:20;;;;;;;24.10;17.10;;;7.30;58.40;;;;;;5054446;28;20412;-72
2022/03/20 06:50:46;;;;;;;20.60;17.33;;;7.40;58.80;;;;;;5055040;28;20739;-67
2022/03/20 06:53:12;;;;;;;20.87;17.43;;;7.50;59.20;;;;;;5054909;28;20385;-67
2022/03/20 06:55:38;;;;;;;26.50;19.00;;;7.50;58.80;;;;;;5054382;28;20400;-67
2022/03/20 06:58:04;;;;;;;24.30;18.27;;;7.40;58.70;;;;;;5054669;28;20389;-67
2022/03/20 07:00:31;;;;;;;26.03;18.00;;;7.50;58.70;;;;;;5054296;28;20736;-67
2022/03/20 07:03:03;;;;;;;22.20;18.17;;;7.50;59.00;;;;;;5054812;28;20514;-67
2022/03/20 07:05:30;;;;;;;21.93;17.87;;;7.60;59.30;;;;;;5054122;28;20447;-67
2022/03/20 07:07:56;;;;;;;24.73;18.20;;;7.50;58.70;;;;;;5054524;28;20412;-67
2022/03/20 07:10:24;;;;;;;24.63;19.00;;;7.50;58.90;;;;;;5054078;28;20870;-68
2022/03/20 07:12:50;;;;;;;23.00;18.80;;;7.60;59.20;;;;;;5054523;28;20181;-67
2022/03/20 07:15:20;;;;;;;24.50;18.23;;;7.50;58.90;;;;;;5054839;28;20431;-67
2022/03/20 07:17:47;;;;;;;21.43;17.47;;;7.40;58.80;;;;;;5053603;28;20384;-66
2022/03/20 07:20:17;;;;;;;24.67;18.67;;;7.50;59.80;;;;;;5054577;28;20484;-67
2022/03/20 07:22:43;;;;;;;23.47;18.50;;;7.50;59.00;;;;;;5052673;28;20467;-66
2022/03/20 07:30:38;;;;;;;24.03;18.27;;;7.70;59.10;;;;;;5053735;28;20416;-67
2022/03/20 07:33:04;;;;;;;24.63;19.40;;;7.70;59.00;;;;;;5054249;28;20541;-67
2022/03/20 07:35:30;;;;;;;21.30;18.47;;;7.70;58.90;;;;;;5053323;28;20196;-67
2022/03/20 07:37:56;;;;;;;23.97;17.63;;;7.60;58.90;;;;;;5053969;28;20617;-67
2022/03/20 07:40:22;;;;;;;23.73;18.33;;;7.60;59.50;;;;;;5053902;28;20414;-73
2022/03/20 07:42:48;;;;;;;22.03;18.07;;;7.70;59.60;;;;;;5051941;28;20415;-67
2022/03/20 07:45:14;;;;;;;23.40;17.90;;;7.70;60.40;;;;;;5053736;28;20966;-67
2022/03/20 07:47:39;;;;;;;26.60;18.07;;;7.70;61.60;;;;;;5052085;28;20223;-67
2022/03/20 07:50:08;;;;;;;26.40;18.57;;;7.70;59.90;;;;;;5053642;28;20172;-67
2022/03/20 07:52:37;;;;;;;23.10;18.43;;;7.70;59.70;;;;;;5053243;28;20172;-67
2022/03/20 07:55:04;;;;;;;25.37;19.03;;;7.70;59.50;;;;;;5053772;28;20417;-66
2022/03/20 07:57:30;;;;;;;22.53;17.90;;;7.70;59.50;;;;;;5053469;28;20514;-67
2022/03/20 07:59:56;;;;;;;23.53;18.67;;;7.90;59.90;;;;;;5052416;28;20466;-67
2022/03/20 08:02:23;;;;;;;26.53;18.00;;;7.90;60.10;;;;;;5053391;28;20235;-67
2022/03/20 08:04:51;;;;;;;24.33;17.63;;;8.00;60.70;;;;;;5052297;28;20922;-66
2022/03/20 08:07:19;;;;;;;25.47;19.13;;;8.10;59.90;;;;;;5053604;28;20762;-67
2022/03/20 08:09:46;;;;;;;24.30;19.03;;;8.10;59.60;;;;;;5052928;28;20409;-67
2022/03/20 08:12:11;;;;;;;26.30;18.50;;;8.20;59.70;;;;;;5053730;28;20424;-67
2022/03/20 08:14:39;;;;;;;22.70;17.90;;;8.30;59.00;;;;;;5052777;28;20486;-67
2022/03/20 08:17:08;;;;;;;23.67;18.57;;;8.30;59.20;;;;;;5053106;28;20195;-67
2022/03/20 08:19:34;;;;;;;22.93;19.23;;;8.40;59.20;;;;;;5051078;28;20467;-67
2022/03/20 08:22:03;;;;;;;22.33;18.47;;;8.50;59.20;;;;;;5053198;28;20451;-67
2022/03/20 08:24:29;;;;;;;23.87;19.73;;;8.50;58.90;;;;;;5052606;28;20770;-67
2022/03/20 08:26:54;;;;;;;20.33;17.47;;;8.50;59.10;;;;;;5051918;28;20420;-67
2022/03/20 08:29:20;;;;;;;21.80;18.80;;;8.60;59.10;;;;;;5053136;28;20419;-67
2022/03/20 08:31:47;;;;;;;25.83;19.03;;;8.60;59.10;;;;;;5052650;28;20634;-67
2022/03/20 08:34:17;;;;;;;26.40;19.60;;;8.80;59.10;;;;;;5052751;28;20683;-67
2022/03/20 08:36:44;;;;;;;23.73;18.90;;;8.80;59.70;;;;;;5052482;28;20408;-67
2022/03/20 08:39:10;;;;;;;26.00;19.80;;;8.90;59.70;;;;;;5052984;28;20542;-67
2022/03/20 08:41:36;;;;;;;26.33;19.00;;;8.90;59.50;;;;;;5052424;28;20417;-67
2022/03/20 08:44:06;;;;;;;26.30;19.37;;;8.90;59.60;;;;;;5052919;28;20436;-67
2022/03/20 08:46:34;;;;;;;23.33;18.70;;;9.00;59.50;;;;;;5051901;28;20822;-67
2022/03/20 08:49:07;;;;;;;26.00;20.10;;;8.90;59.70;;;;;;5052781;28;20420;-67
2022/03/20 08:51:34;;;;;;;23.50;20.13;;;9.00;59.50;;;;;;5052003;28;20396;-67
2022/03/20 08:54:01;;;;;;;23.80;19.43;;;9.10;59.20;;;;;;5052752;28;20420;-66
2022/03/20 08:56:28;;;;;;;23.70;18.83;;;9.20;59.70;;;;;;5052174;28;20494;-72
2022/03/20 08:58:54;;;;;;;26.23;20.03;;;9.20;59.10;;;;;;5052430;28;20408;-67
2022/03/20 09:01:21;;;;;;;23.03;19.20;;;9.40;59.60;;;;;;5053090;28;20424;-67
2022/03/20 09:03:50;;;;;;;23.00;19.30;;;9.50;59.80;;;;;;5051958;28;21155;-67
2022/03/20 09:06:22;;;;;;;24.87;20.57;;;9.60;59.60;;;;;;5052543;28;20457;-67
2022/03/20 09:08:49;;;;;;;24.03;19.73;;;9.70;59.50;;;;;;5051959;28;20424;-67
2022/03/20 09:11:16;;;;;;;24.77;20.20;;;9.70;58.40;;;;;;5052556;28;20480;-67
2022/03/20 09:13:42;;;;;;;28.20;20.93;;;9.70;59.60;;;;;;5051885;28;20412;-67
2022/03/20 09:19:08;;;;;;;27.10;21.60;;;10.00;59.10;;;;;;5052218;28;20254;-67
2022/03/20 09:21:36;;;;;;;26.30;21.30;;;10.00;58.80;;;;;;5051429;28;20998;-67
2022/03/20 09:24:03;;;;;;;26.50;21.00;;;10.20;59.50;;;;;;5052427;28;20440;-67
2022/03/20 09:26:30;;;;;;;26.67;20.77;;;10.40;60.70;;;;;;5051797;28;20648;-71
2022/03/20 09:28:56;;;;;;;24.40;19.63;;;10.60;60.50;;;;;;5052415;28;20835;-67
2022/03/20 09:31:21;;;;;;;23.63;20.53;;;10.80;59.40;;;;;;5052107;28;20445;-67
2022/03/20 09:33:48;;;;;;;26.73;22.50;;;10.90;59.60;;;;;;5055095;28;20896;-67
2022/03/20 09:36:14;;;;;;;25.90;22.20;;;11.10;59.00;;;;;;5056483;28;20414;-67
2022/03/20 09:38:40;;;;;;;25.53;21.67;;;11.30;61.00;;;;;;5055835;28;20478;-67
2022/03/20 09:41:07;;;;;;;26.90;23.20;;;11.50;60.70;;;;;;5055435;28;20910;-67
2022/03/20 09:43:38;;;;;;;26.23;22.23;;;11.80;58.30;;;;;;5056007;28;20261;-67
2022/03/20 09:46:04;;;;;;;22.53;20.13;;;11.90;57.50;;;;;;5056202;28;20439;-67
2022/03/20 09:48:30;;;;;;;27.40;22.70;;;12.10;57.80;;;;;;5055600;28;20412;-75
2022/03/20 09:51:01;;;;;;;25.70;21.50;;;12.30;58.10;;;;;;5054874;28;20472;-67
2022/03/20 09:53:27;;;;;;;26.50;22.20;;;12.60;57.10;;;;;;5056369;28;20455;-67
2022/03/20 09:55:57;;;;;;;25.90;22.30;;;12.80;56.60;;;;;;5055451;28;20433;-67
2022/03/20 09:58:27;;;;;;;27.60;23.63;;;12.80;57.40;;;;;;5056114;28;20467;-67
2022/03/20 10:00:54;;;;;;;27.80;23.70;;;13.10;56.80;;;;;;5055422;28;20509;-67
2022/03/20 10:03:24;;;;;;;28.33;24.20;;;13.20;55.60;;;;;;5055634;28;20954;-66
2022/03/20 10:06:09;;;;;;;28.50;23.90;;;13.40;54.80;;;;;;5055236;28;20457;-67
2022/03/20 10:08:35;;;;;;;31.80;24.70;;;13.50;53.20;;;;;;5055364;28;20405;-66
2022/03/20 10:11:18;;;;;;;27.30;24.30;;;13.70;53.00;;;;;;5055809;28;20443;-66
2022/03/20 10:14:06;;;;;;;32.10;24.10;;;13.80;52.20;;;;;;5055588;28;20399;-66
2022/03/20 10:16:33;;;;;;;26.73;23.83;;;13.90;53.60;;;;;;5055187;28;20518;-70
2022/03/20 10:18:59;;;;;;;32.67;25.57;;;14.10;53.70;;;;;;5055640;28;20898;-66
2022/03/20 10:21:45;;;;;;;28.07;24.33;;;14.30;53.20;;;;;;5055767;28;20463;-66
2022/03/20 10:24:20;;;;;;;29.80;25.37;;;14.20;52.00;;;;;;5055265;28;20782;-66
2022/03/20 10:26:59;;;;;;;27.57;24.27;;;14.10;52.20;;;;;;5054997;28;20526;-66
2022/03/20 10:29:26;;;;;;;27.90;24.30;;;14.10;52.40;;;;;;5055356;28;20446;-66
2022/03/20 10:31:58;;;;;;;32.93;25.70;;;14.10;52.90;;;;;;5054904;28;20417;-66
2022/03/20 10:34:24;;;;;;;30.30;25.67;;;14.00;52.60;;;;;;5055435;28;20403;-66
2022/03/20 10:36:51;;;;;;;30.33;26.10;;;13.90;52.50;;;;;;5054696;28;20930;-66
2022/03/20 10:39:19;;;;;;;29.27;24.93;;;13.70;53.30;;;;;;5055289;28;20514;-66
2022/03/20 10:41:52;;;;;;;31.70;26.53;;;13.70;54.20;;;;;;5054655;28;20446;-66
2022/03/20 10:44:22;;;;;;;29.27;25.53;;;13.40;53.20;;;;;;5054696;28;20404;-66
2022/03/20 10:47:00;;;;;;;31.73;24.90;;;13.20;53.30;;;;;;5054561;28;20433;-66
2022/03/20 10:49:26;;;;;;;29.63;25.17;;;13.30;54.60;;;;;;5055166;28;20487;-66
2022/03/20 10:52:08;;;;;;;32.83;25.23;;;13.40;54.50;;;;;;5053217;28;20432;-66
2022/03/20 10:54:45;;;;;;;29.43;24.40;;;13.50;53.50;;;;;;5054383;28;20412;-68
2022/03/20 10:57:13;;;;;;;28.37;24.80;;;13.40;54.20;;;;;;5054924;28;20460;-66
2022/03/20 10:59:40;;;;;;;27.97;24.37;;;13.40;54.30;;;;;;5054279;28;20495;-66
2022/03/20 11:02:19;;;;;;;31.13;26.10;;;13.00;53.90;;;;;;5053304;28;20416;-65
2022/03/20 11:04:45;;;;;;;30.00;25.33;;;13.00;54.20;;;;;;5054431;28;20924;-66
2022/03/20 11:07:16;;;;;;;29.20;25.83;;;12.90;54.20;;;;;;5054630;28;20423;-66
2022/03/20 11:09:47;;;;;;;30.10;23.40;;;12.80;54.70;;;;;;5054144;28;20164;-66
2022/03/20 11:12:21;;;;;;;30.40;25.20;;;12.90;54.90;;;;;;5054845;28;20405;-66
2022/03/20 11:14:48;;;;;;;29.07;24.97;;;13.00;55.00;;;;;;5052913;28;20400;-66
2022/03/20 11:17:19;;;;;;;30.57;24.67;;;13.00;54.90;;;;;;5054581;28;20446;-66
2022/03/20 11:19:53;;;;;;;28.57;23.87;;;13.10;55.00;;;;;;5053980;28;20464;-66
2022/03/20 11:22:21;;;;;;;31.07;26.50;;;13.10;54.80;;;;;;5054458;28;20530;-67
2022/03/20 11:24:50;;;;;;;28.27;24.00;;;13.20;55.50;;;;;;5053746;28;20456;-66
2022/03/20 11:27:27;;;;;;;29.53;23.83;;;13.40;55.60;;;;;;5053001;28;21042;-66
2022/03/20 11:30:04;;;;;;;30.33;24.73;;;13.60;55.70;;;;;;5052423;28;20439;-67
2022/03/20 11:32:30;;;;;;;28.33;23.90;;;13.80;55.00;;;;;;5054026;28;20415;-66
2022/03/20 11:34:57;;;;;;;33.53;24.70;;;13.80;54.80;;;;;;5053604;28;21081;-66
2022/03/20 11:37:23;;;;;;;28.57;24.50;;;13.80;55.40;;;;;;5054033;28;20443;-67
2022/03/20 11:40:07;;;;;;;30.10;24.00;;;13.60;55.00;;;;;;5053600;28;20454;-66
2022/03/20 11:42:33;;;;;;;32.17;25.07;;;13.50;56.30;;;;;;5054027;28;20460;-66
2022/03/20 11:44:59;;;;;;;32.00;24.30;;;13.70;56.80;;;;;;5053502;28;20463;-66
2022/03/20 11:47:29;;;;;;;33.70;25.70;;;13.80;56.90;;;;;;5053555;28;20760;-66
2022/03/20 11:50:13;;;;;;;28.10;25.03;;;14.00;56.00;;;;;;5053305;28;20165;-66
2022/03/20 11:52:53;;;;;;;29.70;24.73;;;14.40;56.60;;;;;;5053131;28;20447;-73
2022/03/20 11:55:48;;;;;;;34.37;27.03;;;14.70;57.10;;;;;;5052544;28;20831;-67
2022/03/20 11:58:24;;;;;;;30.00;26.53;;;15.10;56.00;;;;;;5053407;28;20406;-66
2022/03/20 12:01:12;;;;;;;32.63;27.80;;;15.40;56.40;;;;;;5052951;28;20481;-67
2022/03/20 12:03:59;;;;;;;30.57;25.27;;;15.60;56.80;;;;;;5053420;28;20515;-74
2022/03/20 12:06:43;;;;;;;32.07;26.90;;;15.80;55.20;;;;;;5053606;28;20799;-66
2022/03/20 12:09:37;;;;;;;31.57;27.10;;;15.90;55.00;;;;;;5053530;28;20414;-67
2022/03/20 12:12:25;;;;;;;32.73;26.63;;;15.60;54.90;;;;;;5053298;28;20839;-67
2022/03/20 12:14:56;;;;;;;30.10;26.43;;;15.40;55.50;;;;;;5051636;28;20426;-67
2022/03/20 12:17:22;;;;;;;30.90;26.60;;;15.20;56.60;;;;;;5053434;28;20416;-66
2022/03/20 12:19:52;;;;;;;31.67;27.53;;;15.20;56.40;;;;;;5052950;28;20452;-67
2022/03/20 12:22:20;;;;;;;31.43;26.80;;;15.20;56.40;;;;;;5053070;28;20515;-67
2022/03/20 12:24:57;;;;;;;32.90;28.10;;;15.10;56.50;;;;;;5052297;28;20461;-67
2022/03/20 12:27:23;;;;;;;30.30;26.77;;;15.00;56.80;;;;;;5052095;28;20415;-67
2022/03/20 12:30:04;;;;;;;31.27;27.10;;;14.80;57.20;;;;;;5052824;28;20601;-67
2022/03/20 12:32:52;;;;;;;32.03;26.80;;;14.70;58.20;;;;;;5053127;28;20621;-66
2022/03/20 12:35:23;;;;;;;30.00;26.00;;;14.50;58.40;;;;;;5053056;28;20415;-66
2022/03/20 12:37:50;;;;;;;33.37;27.27;;;14.50;59.00;;;;;;5051924;28;20881;-67
2022/03/20 12:40:30;;;;;;;29.53;26.37;;;14.60;58.50;;;;;;5052523;28;20426;-67
2022/03/20 12:43:08;;;;;;;32.70;26.60;;;14.70;58.20;;;;;;5052087;28;20827;-67
2022/03/20 12:45:42;;;;;;;34.13;27.50;;;14.60;58.40;;;;;;5052904;28;20928;-66
2022/03/20 12:48:16;;;;;;;32.17;26.00;;;14.60;58.30;;;;;;5052862;28;20487;-66
2022/03/20 12:50:48;;;;;;;29.27;24.73;;;14.50;58.60;;;;;;5051886;28;20471;-67
2022/03/20 12:53:16;;;;;;;31.10;25.43;;;14.50;58.60;;;;;;5052791;28;20480;-67
2022/03/20 12:55:48;;;;;;;29.37;25.17;;;14.50;58.80;;;;;;5052125;28;20408;-68
2022/03/20 12:58:17;;;;;;;30.83;25.07;;;14.40;59.40;;;;;;5052434;28;20880;-66
2022/03/20 13:00:44;;;;;;;31.23;24.60;;;14.50;59.20;;;;;;5051973;28;20447;-67
2022/03/20 13:03:10;;;;;;;32.27;27.40;;;14.30;59.30;;;;;;5052599;28;20459;-66
2022/03/20 13:05:45;;;;;;;32.83;25.73;;;14.30;59.20;;;;;;5052471;28;20807;-67
2022/03/20 13:08:19;;;;;;;30.33;24.63;;;14.30;59.50;;;;;;5052424;28;20489;-67
2022/03/20 13:10:44;;;;;;;29.27;26.10;;;14.20;59.70;;;;;;5052071;28;20435;-67
2022/03/20 13:13:12;;;;;;;30.60;26.73;;;14.30;59.60;;;;;;5052597;28;20441;-66